sensor_id;sensor_type;location;lat;lon;timestamp;P1;durP1;ratioP1;P2;durP2;ratioP2
84523;SDS011;74765;44.538;18.668;2024-03-29T00:00:42;9.25;;;3.72;;
84523;SDS011;74765;44.538;18.668;2024-03-29T00:03:09;12.65;;;5.00;;
84523;SDS011;74765;44.538;18.668;2024-03-29T00:05:36;11.15;;;4.80;;
84523;SDS011;74765;44.538;18.668;2024-03-29T00:08:05;12.65;;;5.10;;
84523;SDS011;74765;44.538;18.668;2024-03-29T00:10:31;14.30;;;4.87;;
84523;SDS011;74765;44.538;18.668;2024-03-29T00:12:58;12.70;;;3.53;;
84523;SDS011;74765;44.538;18.668;2024-03-29T00:15:24;10.77;;;4.60;;
84523;SDS011;74765;44.538;18.668;2024-03-29T00:17:50;11.00;;;3.10;;
84523;SDS011;74765;44.538;18.668;2024-03-29T00:20:16;9.38;;;2.88;;
84523;SDS011;74765;44.538;18.668;2024-03-29T00:22:42;5.45;;;2.30;;
84523;SDS011;74765;44.538;18.668;2024-03-29T00:25:08;9.07;;;2.22;;
84523;SDS011;74765;44.538;18.668;2024-03-29T00:27:34;5.93;;;1.85;;
84523;SDS011;74765;44.538;18.668;2024-03-29T00:30:00;8.68;;;2.05;;
84523;SDS011;74765;44.538;18.668;2024-03-29T00:32:25;9.93;;;3.13;;
84523;SDS011;74765;44.538;18.668;2024-03-29T00:34:52;8.20;;;2.97;;
84523;SDS011;74765;44.538;18.668;2024-03-29T00:37:19;5.65;;;1.98;;
84523;SDS011;74765;44.538;18.668;2024-03-29T00:39:45;6.20;;;1.90;;
84523;SDS011;74765;44.538;18.668;2024-03-29T00:42:12;5.50;;;2.22;;
84523;SDS011;74765;44.538;18.668;2024-03-29T00:44:43;11.13;;;2.13;;
84523;SDS011;74765;44.538;18.668;2024-03-29T00:47:09;4.50;;;1.97;;
84523;SDS011;74765;44.538;18.668;2024-03-29T00:49:35;7.45;;;2.28;;
84523;SDS011;74765;44.538;18.668;2024-03-29T00:52:02;5.47;;;1.67;;
84523;SDS011;74765;44.538;18.668;2024-03-29T00:54:29;6.85;;;1.63;;
84523;SDS011;74765;44.538;18.668;2024-03-29T00:56:55;5.65;;;1.33;;
84523;SDS011;74765;44.538;18.668;2024-03-29T00:59:21;5.03;;;1.70;;
84523;SDS011;74765;44.538;18.668;2024-03-29T01:01:49;2.70;;;1.08;;
84523;SDS011;74765;44.538;18.668;2024-03-29T01:04:15;4.32;;;1.40;;
84523;SDS011;74765;44.538;18.668;2024-03-29T01:06:41;9.13;;;1.42;;
84523;SDS011;74765;44.538;18.668;2024-03-29T01:09:10;5.75;;;1.25;;
84523;SDS011;74765;44.538;18.668;2024-03-29T01:11:37;5.45;;;1.25;;
84523;SDS011;74765;44.538;18.668;2024-03-29T01:14:03;4.00;;;1.30;;
84523;SDS011;74765;44.538;18.668;2024-03-29T01:16:29;5.97;;;1.52;;
84523;SDS011;74765;44.538;18.668;2024-03-29T01:18:57;5.80;;;1.77;;
84523;SDS011;74765;44.538;18.668;2024-03-29T01:21:23;3.90;;;1.55;;
84523;SDS011;74765;44.538;18.668;2024-03-29T01:23:49;6.07;;;1.60;;
84523;SDS011;74765;44.538;18.668;2024-03-29T01:26:15;3.72;;;1.50;;
84523;SDS011;74765;44.538;18.668;2024-03-29T01:28:43;7.05;;;1.98;;
84523;SDS011;74765;44.538;18.668;2024-03-29T01:31:09;6.45;;;2.00;;
84523;SDS011;74765;44.538;18.668;2024-03-29T01:33:35;5.93;;;1.80;;
84523;SDS011;74765;44.538;18.668;2024-03-29T01:36:06;7.22;;;1.70;;
84523;SDS011;74765;44.538;18.668;2024-03-29T01:38:33;5.72;;;1.50;;
84523;SDS011;74765;44.538;18.668;2024-03-29T01:40:59;6.82;;;1.92;;
84523;SDS011;74765;44.538;18.668;2024-03-29T01:43:25;8.48;;;2.22;;
84523;SDS011;74765;44.538;18.668;2024-03-29T01:45:54;4.20;;;1.65;;
84523;SDS011;74765;44.538;18.668;2024-03-29T01:48:24;6.22;;;1.58;;
84523;SDS011;74765;44.538;18.668;2024-03-29T01:50:53;7.15;;;1.90;;
84523;SDS011;74765;44.538;18.668;2024-03-29T01:53:21;5.65;;;1.52;;
84523;SDS011;74765;44.538;18.668;2024-03-29T01:55:49;6.07;;;1.92;;
84523;SDS011;74765;44.538;18.668;2024-03-29T01:58:15;6.32;;;1.80;;
84523;SDS011;74765;44.538;18.668;2024-03-29T02:00:42;5.47;;;1.50;;
84523;SDS011;74765;44.538;18.668;2024-03-29T02:03:22;5.15;;;2.08;;
84523;SDS011;74765;44.538;18.668;2024-03-29T02:05:48;5.50;;;1.50;;
84523;SDS011;74765;44.538;18.668;2024-03-29T02:08:14;7.00;;;1.77;;
84523;SDS011;74765;44.538;18.668;2024-03-29T02:10:41;6.78;;;1.83;;
84523;SDS011;74765;44.538;18.668;2024-03-29T02:13:08;4.05;;;1.58;;
84523;SDS011;74765;44.538;18.668;2024-03-29T02:15:34;6.78;;;1.63;;
84523;SDS011;74765;44.538;18.668;2024-03-29T02:18:00;8.65;;;2.10;;
84523;SDS011;74765;44.538;18.668;2024-03-29T02:20:25;6.60;;;1.60;;
84523;SDS011;74765;44.538;18.668;2024-03-29T02:22:57;4.90;;;1.70;;
84523;SDS011;74765;44.538;18.668;2024-03-29T02:25:26;5.10;;;2.20;;
84523;SDS011;74765;44.538;18.668;2024-03-29T02:27:52;9.82;;;2.10;;
84523;SDS011;74765;44.538;18.668;2024-03-29T02:30:19;4.55;;;1.70;;
84523;SDS011;74765;44.538;18.668;2024-03-29T02:32:46;10.25;;;2.50;;
84523;SDS011;74765;44.538;18.668;2024-03-29T02:35:12;7.80;;;1.85;;
84523;SDS011;74765;44.538;18.668;2024-03-29T02:37:38;6.68;;;2.20;;
84523;SDS011;74765;44.538;18.668;2024-03-29T02:40:04;12.20;;;2.33;;
84523;SDS011;74765;44.538;18.668;2024-03-29T02:42:31;5.40;;;2.00;;
84523;SDS011;74765;44.538;18.668;2024-03-29T02:44:57;8.30;;;2.25;;
84523;SDS011;74765;44.538;18.668;2024-03-29T02:47:23;6.55;;;1.77;;
84523;SDS011;74765;44.538;18.668;2024-03-29T02:49:49;7.10;;;1.70;;
84523;SDS011;74765;44.538;18.668;2024-03-29T02:52:15;8.20;;;2.40;;
84523;SDS011;74765;44.538;18.668;2024-03-29T02:54:41;8.30;;;2.20;;
84523;SDS011;74765;44.538;18.668;2024-03-29T02:57:07;4.78;;;1.73;;
84523;SDS011;74765;44.538;18.668;2024-03-29T02:59:33;7.53;;;2.28;;
84523;SDS011;74765;44.538;18.668;2024-03-29T03:01:59;11.60;;;3.28;;
84523;SDS011;74765;44.538;18.668;2024-03-29T03:04:24;8.10;;;2.72;;
84523;SDS011;74765;44.538;18.668;2024-03-29T03:06:50;10.38;;;2.30;;
84523;SDS011;74765;44.538;18.668;2024-03-29T03:09:16;12.00;;;3.40;;
84523;SDS011;74765;44.538;18.668;2024-03-29T03:12:00;15.73;;;5.60;;
84523;SDS011;74765;44.538;18.668;2024-03-29T03:14:26;17.58;;;6.90;;
84523;SDS011;74765;44.538;18.668;2024-03-29T03:16:52;21.95;;;9.90;;
84523;SDS011;74765;44.538;18.668;2024-03-29T03:19:18;18.48;;;8.68;;
84523;SDS011;74765;44.538;18.668;2024-03-29T03:21:44;26.65;;;9.38;;
84523;SDS011;74765;44.538;18.668;2024-03-29T03:24:10;19.25;;;8.52;;
84523;SDS011;74765;44.538;18.668;2024-03-29T03:26:37;21.95;;;8.00;;
84523;SDS011;74765;44.538;18.668;2024-03-29T03:29:03;20.92;;;9.43;;
84523;SDS011;74765;44.538;18.668;2024-03-29T03:31:29;24.27;;;8.63;;
84523;SDS011;74765;44.538;18.668;2024-03-29T03:33:56;18.00;;;6.65;;
84523;SDS011;74765;44.538;18.668;2024-03-29T03:36:21;18.65;;;6.70;;
84523;SDS011;74765;44.538;18.668;2024-03-29T03:38:48;19.45;;;7.75;;
84523;SDS011;74765;44.538;18.668;2024-03-29T03:41:14;19.83;;;8.07;;
84523;SDS011;74765;44.538;18.668;2024-03-29T03:43:40;26.77;;;10.23;;
84523;SDS011;74765;44.538;18.668;2024-03-29T03:46:06;17.80;;;7.65;;
84523;SDS011;74765;44.538;18.668;2024-03-29T03:48:31;27.35;;;10.85;;
84523;SDS011;74765;44.538;18.668;2024-03-29T03:50:57;22.25;;;9.05;;
84523;SDS011;74765;44.538;18.668;2024-03-29T03:53:23;20.77;;;9.57;;
84523;SDS011;74765;44.538;18.668;2024-03-29T03:55:49;23.77;;;10.38;;
84523;SDS011;74765;44.538;18.668;2024-03-29T03:58:15;16.13;;;7.68;;
84523;SDS011;74765;44.538;18.668;2024-03-29T04:00:40;15.73;;;6.38;;
84523;SDS011;74765;44.538;18.668;2024-03-29T04:03:07;13.02;;;5.35;;
84523;SDS011;74765;44.538;18.668;2024-03-29T04:05:33;10.18;;;4.93;;
84523;SDS011;74765;44.538;18.668;2024-03-29T04:08:01;13.48;;;4.93;;
84523;SDS011;74765;44.538;18.668;2024-03-29T04:10:27;10.50;;;4.65;;
84523;SDS011;74765;44.538;18.668;2024-03-29T04:12:53;17.67;;;7.15;;
84523;SDS011;74765;44.538;18.668;2024-03-29T04:15:19;57.85;;;30.52;;
84523;SDS011;74765;44.538;18.668;2024-03-29T04:17:45;28.52;;;13.77;;
84523;SDS011;74765;44.538;18.668;2024-03-29T04:20:10;26.13;;;8.95;;
84523;SDS011;74765;44.538;18.668;2024-03-29T04:22:36;16.70;;;7.63;;
84523;SDS011;74765;44.538;18.668;2024-03-29T04:25:02;10.85;;;5.18;;
84523;SDS011;74765;44.538;18.668;2024-03-29T04:27:28;13.10;;;5.05;;
84523;SDS011;74765;44.538;18.668;2024-03-29T04:29:54;8.25;;;4.28;;
84523;SDS011;74765;44.538;18.668;2024-03-29T04:32:20;12.00;;;5.30;;
84523;SDS011;74765;44.538;18.668;2024-03-29T04:34:47;15.10;;;6.55;;
84523;SDS011;74765;44.538;18.668;2024-03-29T04:37:13;15.90;;;7.32;;
84523;SDS011;74765;44.538;18.668;2024-03-29T04:39:39;16.48;;;6.18;;
84523;SDS011;74765;44.538;18.668;2024-03-29T04:42:05;12.30;;;4.25;;
84523;SDS011;74765;44.538;18.668;2024-03-29T04:44:32;9.85;;;3.95;;
84523;SDS011;74765;44.538;18.668;2024-03-29T04:46:58;10.02;;;3.95;;
84523;SDS011;74765;44.538;18.668;2024-03-29T04:49:23;10.52;;;4.20;;
84523;SDS011;74765;44.538;18.668;2024-03-29T04:52:00;9.40;;;4.50;;
84523;SDS011;74765;44.538;18.668;2024-03-29T04:54:26;12.13;;;4.85;;
84523;SDS011;74765;44.538;18.668;2024-03-29T04:56:53;16.65;;;6.03;;
84523;SDS011;74765;44.538;18.668;2024-03-29T04:59:19;25.77;;;12.35;;
84523;SDS011;74765;44.538;18.668;2024-03-29T05:01:48;14.18;;;6.68;;
84523;SDS011;74765;44.538;18.668;2024-03-29T05:04:19;14.27;;;5.90;;
84523;SDS011;74765;44.538;18.668;2024-03-29T05:06:59;11.85;;;5.40;;
84523;SDS011;74765;44.538;18.668;2024-03-29T05:09:25;11.23;;;5.20;;
84523;SDS011;74765;44.538;18.668;2024-03-29T05:11:51;15.00;;;5.50;;
84523;SDS011;74765;44.538;18.668;2024-03-29T05:14:19;13.88;;;5.97;;
84523;SDS011;74765;44.538;18.668;2024-03-29T05:16:45;17.20;;;8.43;;
84523;SDS011;74765;44.538;18.668;2024-03-29T05:19:12;9.23;;;4.40;;
84523;SDS011;74765;44.538;18.668;2024-03-29T05:21:39;11.77;;;4.60;;
84523;SDS011;74765;44.538;18.668;2024-03-29T05:24:06;10.07;;;4.18;;
84523;SDS011;74765;44.538;18.668;2024-03-29T05:26:32;11.43;;;5.13;;
84523;SDS011;74765;44.538;18.668;2024-03-29T05:28:58;21.30;;;9.75;;
84523;SDS011;74765;44.538;18.668;2024-03-29T05:31:25;22.35;;;9.65;;
84523;SDS011;74765;44.538;18.668;2024-03-29T05:33:52;30.58;;;13.60;;
84523;SDS011;74765;44.538;18.668;2024-03-29T05:36:18;29.33;;;12.73;;
84523;SDS011;74765;44.538;18.668;2024-03-29T05:38:44;53.00;;;24.58;;
84523;SDS011;74765;44.538;18.668;2024-03-29T05:41:10;31.15;;;14.52;;
84523;SDS011;74765;44.538;18.668;2024-03-29T05:43:38;19.92;;;9.55;;
84523;SDS011;74765;44.538;18.668;2024-03-29T05:46:04;19.70;;;7.68;;
84523;SDS011;74765;44.538;18.668;2024-03-29T05:48:33;14.85;;;6.55;;
84523;SDS011;74765;44.538;18.668;2024-03-29T05:50:59;13.93;;;6.18;;
84523;SDS011;74765;44.538;18.668;2024-03-29T05:53:27;12.77;;;5.40;;
84523;SDS011;74765;44.538;18.668;2024-03-29T05:55:53;14.45;;;6.53;;
84523;SDS011;74765;44.538;18.668;2024-03-29T05:58:19;15.65;;;7.75;;
84523;SDS011;74765;44.538;18.668;2024-03-29T06:00:46;18.65;;;9.45;;
84523;SDS011;74765;44.538;18.668;2024-03-29T06:03:12;11.50;;;6.28;;
84523;SDS011;74765;44.538;18.668;2024-03-29T06:05:39;15.98;;;6.38;;
84523;SDS011;74765;44.538;18.668;2024-03-29T06:08:06;16.58;;;6.70;;
84523;SDS011;74765;44.538;18.668;2024-03-29T06:10:33;13.60;;;6.60;;
84523;SDS011;74765;44.538;18.668;2024-03-29T06:12:59;19.52;;;7.93;;
84523;SDS011;74765;44.538;18.668;2024-03-29T06:15:43;19.77;;;9.77;;
84523;SDS011;74765;44.538;18.668;2024-03-29T06:18:27;17.10;;;7.68;;
84523;SDS011;74765;44.538;18.668;2024-03-29T06:20:53;20.60;;;9.43;;
84523;SDS011;74765;44.538;18.668;2024-03-29T06:23:19;21.58;;;9.10;;
84523;SDS011;74765;44.538;18.668;2024-03-29T06:25:45;22.35;;;10.35;;
84523;SDS011;74765;44.538;18.668;2024-03-29T06:28:11;19.20;;;7.50;;
84523;SDS011;74765;44.538;18.668;2024-03-29T06:30:38;14.80;;;7.07;;
84523;SDS011;74765;44.538;18.668;2024-03-29T06:33:04;14.88;;;6.60;;
84523;SDS011;74765;44.538;18.668;2024-03-29T06:35:33;13.75;;;6.72;;
84523;SDS011;74765;44.538;18.668;2024-03-29T06:37:59;14.27;;;6.37;;
84523;SDS011;74765;44.538;18.668;2024-03-29T06:40:24;15.82;;;7.10;;
84523;SDS011;74765;44.538;18.668;2024-03-29T06:42:52;13.88;;;6.72;;
84523;SDS011;74765;44.538;18.668;2024-03-29T06:45:20;15.27;;;7.57;;
84523;SDS011;74765;44.538;18.668;2024-03-29T06:47:47;16.35;;;7.95;;
84523;SDS011;74765;44.538;18.668;2024-03-29T06:50:13;20.10;;;8.23;;
84523;SDS011;74765;44.538;18.668;2024-03-29T06:52:39;13.43;;;7.72;;
84523;SDS011;74765;44.538;18.668;2024-03-29T06:55:05;15.60;;;8.07;;
84523;SDS011;74765;44.538;18.668;2024-03-29T06:57:33;15.40;;;7.57;;
84523;SDS011;74765;44.538;18.668;2024-03-29T07:00:01;13.95;;;7.32;;
84523;SDS011;74765;44.538;18.668;2024-03-29T07:02:29;17.05;;;8.30;;
84523;SDS011;74765;44.538;18.668;2024-03-29T07:05:00;18.42;;;7.95;;
84523;SDS011;74765;44.538;18.668;2024-03-29T07:07:46;17.70;;;7.32;;
84523;SDS011;74765;44.538;18.668;2024-03-29T07:10:12;14.85;;;7.32;;
84523;SDS011;74765;44.538;18.668;2024-03-29T07:12:38;17.00;;;7.57;;
84523;SDS011;74765;44.538;18.668;2024-03-29T07:15:04;15.32;;;7.00;;
84523;SDS011;74765;44.538;18.668;2024-03-29T07:17:30;15.55;;;6.63;;
84523;SDS011;74765;44.538;18.668;2024-03-29T07:19:56;18.58;;;6.75;;
84523;SDS011;74765;44.538;18.668;2024-03-29T07:22:22;17.77;;;6.10;;
84523;SDS011;74765;44.538;18.668;2024-03-29T07:24:56;10.50;;;4.10;;
84523;SDS011;74765;44.538;18.668;2024-03-29T07:27:34;12.05;;;4.32;;
84523;SDS011;74765;44.538;18.668;2024-03-29T07:30:04;9.50;;;3.85;;
84523;SDS011;74765;44.538;18.668;2024-03-29T07:32:33;9.43;;;3.65;;
84523;SDS011;74765;44.538;18.668;2024-03-29T07:35:00;12.13;;;3.33;;
84523;SDS011;74765;44.538;18.668;2024-03-29T07:37:32;11.63;;;4.03;;
84523;SDS011;74765;44.538;18.668;2024-03-29T07:40:11;15.30;;;4.60;;
84523;SDS011;74765;44.538;18.668;2024-03-29T07:42:37;10.07;;;3.10;;
84523;SDS011;74765;44.538;18.668;2024-03-29T07:45:08;12.13;;;3.95;;
84523;SDS011;74765;44.538;18.668;2024-03-29T07:47:34;15.10;;;4.10;;
84523;SDS011;74765;44.538;18.668;2024-03-29T07:50:00;8.60;;;2.90;;
84523;SDS011;74765;44.538;18.668;2024-03-29T07:52:35;9.50;;;2.70;;
84523;SDS011;74765;44.538;18.668;2024-03-29T07:55:01;14.30;;;3.40;;
84523;SDS011;74765;44.538;18.668;2024-03-29T07:57:27;13.77;;;4.15;;
84523;SDS011;74765;44.538;18.668;2024-03-29T08:00:01;14.50;;;5.40;;
84523;SDS011;74765;44.538;18.668;2024-03-29T08:02:31;14.23;;;1.98;;
84523;SDS011;74765;44.538;18.668;2024-03-29T08:05:00;9.98;;;2.50;;
84523;SDS011;74765;44.538;18.668;2024-03-29T08:07:35;8.05;;;2.08;;
84523;SDS011;74765;44.538;18.668;2024-03-29T08:10:04;12.45;;;2.13;;
84523;SDS011;74765;44.538;18.668;2024-03-29T08:12:35;7.47;;;2.20;;
84523;SDS011;74765;44.538;18.668;2024-03-29T08:15:03;9.20;;;2.58;;
84523;SDS011;74765;44.538;18.668;2024-03-29T08:17:32;5.13;;;1.60;;
84523;SDS011;74765;44.538;18.668;2024-03-29T08:22:37;6.03;;;2.00;;
84523;SDS011;74765;44.538;18.668;2024-03-29T08:25:03;7.05;;;1.60;;
84523;SDS011;74765;44.538;18.668;2024-03-29T08:27:29;8.25;;;2.15;;
84523;SDS011;74765;44.538;18.668;2024-03-29T08:29:55;7.50;;;2.10;;
84523;SDS011;74765;44.538;18.668;2024-03-29T08:32:21;9.65;;;2.75;;
84523;SDS011;74765;44.538;18.668;2024-03-29T08:34:47;11.98;;;2.03;;
84523;SDS011;74765;44.538;18.668;2024-03-29T08:37:13;6.78;;;1.85;;
84523;SDS011;74765;44.538;18.668;2024-03-29T08:39:39;12.27;;;2.00;;
84523;SDS011;74765;44.538;18.668;2024-03-29T08:42:05;6.72;;;1.60;;
84523;SDS011;74765;44.538;18.668;2024-03-29T08:44:34;6.65;;;1.80;;
84523;SDS011;74765;44.538;18.668;2024-03-29T08:47:01;11.98;;;2.13;;
84523;SDS011;74765;44.538;18.668;2024-03-29T08:49:50;7.57;;;2.15;;
84523;SDS011;74765;44.538;18.668;2024-03-29T08:52:17;7.47;;;2.20;;
84523;SDS011;74765;44.538;18.668;2024-03-29T08:54:47;4.38;;;2.05;;
84523;SDS011;74765;44.538;18.668;2024-03-29T08:57:15;9.23;;;1.92;;
84523;SDS011;74765;44.538;18.668;2024-03-29T08:59:41;7.68;;;2.58;;
84523;SDS011;74765;44.538;18.668;2024-03-29T09:02:07;14.10;;;7.00;;
84523;SDS011;74765;44.538;18.668;2024-03-29T09:04:33;10.15;;;3.78;;
84523;SDS011;74765;44.538;18.668;2024-03-29T09:07:02;8.57;;;2.38;;
84523;SDS011;74765;44.538;18.668;2024-03-29T09:09:29;8.00;;;2.72;;
84523;SDS011;74765;44.538;18.668;2024-03-29T09:11:56;8.75;;;2.38;;
84523;SDS011;74765;44.538;18.668;2024-03-29T09:14:22;9.55;;;3.15;;
84523;SDS011;74765;44.538;18.668;2024-03-29T09:16:49;6.25;;;1.60;;
84523;SDS011;74765;44.538;18.668;2024-03-29T09:19:16;5.68;;;2.00;;
84523;SDS011;74765;44.538;18.668;2024-03-29T09:21:42;13.45;;;2.30;;
84523;SDS011;74765;44.538;18.668;2024-03-29T09:24:11;8.65;;;1.63;;
84523;SDS011;74765;44.538;18.668;2024-03-29T09:26:37;10.88;;;2.00;;
84523;SDS011;74765;44.538;18.668;2024-03-29T09:29:09;6.63;;;1.60;;
84523;SDS011;74765;44.538;18.668;2024-03-29T09:31:38;6.45;;;1.50;;
84523;SDS011;74765;44.538;18.668;2024-03-29T09:34:04;10.57;;;1.60;;
84523;SDS011;74765;44.538;18.668;2024-03-29T09:36:31;9.43;;;1.33;;
84523;SDS011;74765;44.538;18.668;2024-03-29T09:38:59;6.97;;;1.20;;
84523;SDS011;74765;44.538;18.668;2024-03-29T09:41:25;10.45;;;1.85;;
84523;SDS011;74765;44.538;18.668;2024-03-29T09:51:28;5.40;;;1.58;;
84523;SDS011;74765;44.538;18.668;2024-03-29T09:54:20;10.02;;;1.65;;
84523;SDS011;74765;44.538;18.668;2024-03-29T10:00:09;11.68;;;4.20;;
84523;SDS011;74765;44.538;18.668;2024-03-29T10:03:16;10.65;;;3.83;;
84523;SDS011;74765;44.538;18.668;2024-03-29T10:05:56;10.65;;;2.00;;
84523;SDS011;74765;44.538;18.668;2024-03-29T10:08:45;8.48;;;1.58;;
84523;SDS011;74765;44.538;18.668;2024-03-29T10:13:47;6.80;;;1.90;;
84523;SDS011;74765;44.538;18.668;2024-03-29T10:16:17;6.45;;;1.77;;
84523;SDS011;74765;44.538;18.668;2024-03-29T10:18:59;7.90;;;1.73;;
84523;SDS011;74765;44.538;18.668;2024-03-29T10:21:27;8.52;;;1.80;;
84523;SDS011;74765;44.538;18.668;2024-03-29T10:23:56;10.23;;;3.85;;
84523;SDS011;74765;44.538;18.668;2024-03-29T10:26:45;10.00;;;3.28;;
84523;SDS011;74765;44.538;18.668;2024-03-29T10:29:16;19.40;;;7.55;;
84523;SDS011;74765;44.538;18.668;2024-03-29T10:31:45;13.68;;;2.53;;
84523;SDS011;74765;44.538;18.668;2024-03-29T10:34:15;14.27;;;3.78;;
84523;SDS011;74765;44.538;18.668;2024-03-29T10:36:41;12.60;;;2.53;;
84523;SDS011;74765;44.538;18.668;2024-03-29T10:39:10;10.25;;;2.25;;
84523;SDS011;74765;44.538;18.668;2024-03-29T10:41:42;9.63;;;2.10;;
84523;SDS011;74765;44.538;18.668;2024-03-29T10:44:09;13.15;;;3.70;;
84523;SDS011;74765;44.538;18.668;2024-03-29T10:46:51;19.13;;;8.15;;
84523;SDS011;74765;44.538;18.668;2024-03-29T10:49:21;9.80;;;4.20;;
84523;SDS011;74765;44.538;18.668;2024-03-29T10:51:49;14.95;;;5.40;;
84523;SDS011;74765;44.538;18.668;2024-03-29T10:54:16;12.68;;;3.65;;
84523;SDS011;74765;44.538;18.668;2024-03-29T10:56:47;14.40;;;5.80;;
84523;SDS011;74765;44.538;18.668;2024-03-29T10:59:31;11.93;;;2.00;;
84523;SDS011;74765;44.538;18.668;2024-03-29T11:02:11;6.60;;;2.20;;
84523;SDS011;74765;44.538;18.668;2024-03-29T11:04:39;7.78;;;2.47;;
84523;SDS011;74765;44.538;18.668;2024-03-29T11:07:07;8.27;;;2.60;;
84523;SDS011;74765;44.538;18.668;2024-03-29T11:09:43;7.45;;;1.80;;
84523;SDS011;74765;44.538;18.668;2024-03-29T11:12:15;10.20;;;3.10;;
84523;SDS011;74765;44.538;18.668;2024-03-29T11:14:46;9.52;;;1.75;;
84523;SDS011;74765;44.538;18.668;2024-03-29T11:17:16;9.63;;;1.80;;
84523;SDS011;74765;44.538;18.668;2024-03-29T11:19:42;9.43;;;1.83;;
84523;SDS011;74765;44.538;18.668;2024-03-29T11:22:08;9.57;;;2.13;;
84523;SDS011;74765;44.538;18.668;2024-03-29T11:24:38;13.15;;;2.33;;
84523;SDS011;74765;44.538;18.668;2024-03-29T11:27:14;8.63;;;1.77;;
84523;SDS011;74765;44.538;18.668;2024-03-29T11:29:41;7.65;;;1.70;;
84523;SDS011;74765;44.538;18.668;2024-03-29T11:32:14;8.00;;;1.83;;
84523;SDS011;74765;44.538;18.668;2024-03-29T11:34:43;6.22;;;2.08;;
84523;SDS011;74765;44.538;18.668;2024-03-29T11:37:14;12.95;;;4.50;;
84523;SDS011;74765;44.538;18.668;2024-03-29T11:39:41;8.70;;;2.40;;
84523;SDS011;74765;44.538;18.668;2024-03-29T11:45:15;3.75;;;1.40;;
84523;SDS011;74765;44.538;18.668;2024-03-29T11:48:00;5.13;;;1.40;;
84523;SDS011;74765;44.538;18.668;2024-03-29T11:50:55;8.77;;;1.92;;
84523;SDS011;74765;44.538;18.668;2024-03-29T11:53:21;5.15;;;1.77;;
84523;SDS011;74765;44.538;18.668;2024-03-29T11:55:51;11.30;;;2.22;;
84523;SDS011;74765;44.538;18.668;2024-03-29T11:58:24;8.68;;;1.80;;
84523;SDS011;74765;44.538;18.668;2024-03-29T12:00:51;10.32;;;1.40;;
84523;SDS011;74765;44.538;18.668;2024-03-29T12:03:19;11.25;;;2.20;;
84523;SDS011;74765;44.538;18.668;2024-03-29T12:06:07;9.63;;;1.95;;
84523;SDS011;74765;44.538;18.668;2024-03-29T12:08:38;8.85;;;1.80;;
84523;SDS011;74765;44.538;18.668;2024-03-29T12:11:06;6.35;;;1.58;;
84523;SDS011;74765;44.538;18.668;2024-03-29T12:13:33;12.18;;;2.35;;
84523;SDS011;74765;44.538;18.668;2024-03-29T12:16:02;7.05;;;2.05;;
84523;SDS011;74765;44.538;18.668;2024-03-29T12:18:29;6.85;;;2.08;;
84523;SDS011;74765;44.538;18.668;2024-03-29T12:20:57;5.47;;;1.70;;
84523;SDS011;74765;44.538;18.668;2024-03-29T12:23:24;8.02;;;1.80;;
84523;SDS011;74765;44.538;18.668;2024-03-29T12:26:08;6.32;;;1.88;;
84523;SDS011;74765;44.538;18.668;2024-03-29T12:28:53;9.68;;;3.83;;
84523;SDS011;74765;44.538;18.668;2024-03-29T12:31:45;10.07;;;3.53;;
84523;SDS011;74765;44.538;18.668;2024-03-29T12:34:25;12.95;;;2.42;;
84523;SDS011;74765;44.538;18.668;2024-03-29T12:36:55;6.97;;;2.20;;
84523;SDS011;74765;44.538;18.668;2024-03-29T12:39:25;7.43;;;1.63;;
84523;SDS011;74765;44.538;18.668;2024-03-29T12:41:52;9.20;;;1.90;;
84523;SDS011;74765;44.538;18.668;2024-03-29T12:44:21;8.43;;;1.70;;
84523;SDS011;74765;44.538;18.668;2024-03-29T12:49:39;6.35;;;1.95;;
84523;SDS011;74765;44.538;18.668;2024-03-29T12:52:06;5.50;;;1.38;;
84523;SDS011;74765;44.538;18.668;2024-03-29T12:54:32;8.95;;;1.67;;
84523;SDS011;74765;44.538;18.668;2024-03-29T12:57:00;10.75;;;3.20;;
84523;SDS011;74765;44.538;18.668;2024-03-29T12:59:45;7.22;;;1.70;;
84523;SDS011;74765;44.538;18.668;2024-03-29T13:02:17;4.30;;;1.92;;
84523;SDS011;74765;44.538;18.668;2024-03-29T13:04:43;7.25;;;2.00;;
84523;SDS011;74765;44.538;18.668;2024-03-29T13:10:13;7.15;;;2.00;;
84523;SDS011;74765;44.538;18.668;2024-03-29T13:13:09;8.00;;;2.28;;
84523;SDS011;74765;44.538;18.668;2024-03-29T13:15:41;9.38;;;2.05;;
84523;SDS011;74765;44.538;18.668;2024-03-29T13:18:16;7.47;;;2.25;;
84523;SDS011;74765;44.538;18.668;2024-03-29T13:20:43;4.72;;;1.50;;
84523;SDS011;74765;44.538;18.668;2024-03-29T13:26:01;13.55;;;3.78;;
84523;SDS011;74765;44.538;18.668;2024-03-29T13:28:50;10.38;;;2.10;;
84523;SDS011;74765;44.538;18.668;2024-03-29T13:31:18;7.13;;;1.55;;
84523;SDS011;74765;44.538;18.668;2024-03-29T13:34:06;11.35;;;2.13;;
84523;SDS011;74765;44.538;18.668;2024-03-29T13:36:52;11.02;;;1.77;;
84523;SDS011;74765;44.538;18.668;2024-03-29T13:39:29;8.07;;;1.70;;
84523;SDS011;74765;44.538;18.668;2024-03-29T13:42:06;9.02;;;1.63;;
84523;SDS011;74765;44.538;18.668;2024-03-29T13:47:48;12.55;;;2.10;;
84523;SDS011;74765;44.538;18.668;2024-03-29T13:50:14;9.70;;;2.47;;
84523;SDS011;74765;44.538;18.668;2024-03-29T13:52:41;9.25;;;3.17;;
84523;SDS011;74765;44.538;18.668;2024-03-29T13:55:08;11.27;;;2.22;;
84523;SDS011;74765;44.538;18.668;2024-03-29T13:57:35;7.50;;;2.10;;
84523;SDS011;74765;44.538;18.668;2024-03-29T14:00:07;9.68;;;2.08;;
84523;SDS011;74765;44.538;18.668;2024-03-29T14:02:43;8.18;;;1.88;;
84523;SDS011;74765;44.538;18.668;2024-03-29T14:05:09;6.63;;;2.35;;
84523;SDS011;74765;44.538;18.668;2024-03-29T14:07:35;7.50;;;2.50;;
84523;SDS011;74765;44.538;18.668;2024-03-29T14:10:01;10.02;;;2.40;;
84523;SDS011;74765;44.538;18.668;2024-03-29T14:12:32;11.07;;;3.60;;
84523;SDS011;74765;44.538;18.668;2024-03-29T14:15:04;6.97;;;2.23;;
84523;SDS011;74765;44.538;18.668;2024-03-29T14:17:36;6.55;;;1.58;;
84523;SDS011;74765;44.538;18.668;2024-03-29T14:20:04;8.73;;;1.50;;
84523;SDS011;74765;44.538;18.668;2024-03-29T14:22:34;8.50;;;1.63;;
84523;SDS011;74765;44.538;18.668;2024-03-29T14:25:01;6.85;;;1.35;;
84523;SDS011;74765;44.538;18.668;2024-03-29T14:27:29;5.55;;;1.20;;
84523;SDS011;74765;44.538;18.668;2024-03-29T14:30:02;5.95;;;1.88;;
84523;SDS011;74765;44.538;18.668;2024-03-29T14:32:28;7.28;;;1.50;;
84523;SDS011;74765;44.538;18.668;2024-03-29T14:34:54;6.95;;;1.90;;
84523;SDS011;74765;44.538;18.668;2024-03-29T14:37:20;4.10;;;1.55;;
84523;SDS011;74765;44.538;18.668;2024-03-29T14:39:46;5.18;;;1.20;;
84523;SDS011;74765;44.538;18.668;2024-03-29T14:42:15;6.03;;;2.10;;
84523;SDS011;74765;44.538;18.668;2024-03-29T14:44:47;5.68;;;1.45;;
84523;SDS011;74765;44.538;18.668;2024-03-29T14:47:13;6.53;;;1.80;;
84523;SDS011;74765;44.538;18.668;2024-03-29T14:49:42;8.95;;;2.03;;
84523;SDS011;74765;44.538;18.668;2024-03-29T14:52:08;12.77;;;1.52;;
84523;SDS011;74765;44.538;18.668;2024-03-29T14:54:34;5.57;;;1.27;;
84523;SDS011;74765;44.538;18.668;2024-03-29T14:57:00;13.32;;;2.10;;
84523;SDS011;74765;44.538;18.668;2024-03-29T14:59:25;5.15;;;1.55;;
84523;SDS011;74765;44.538;18.668;2024-03-29T15:01:55;6.22;;;1.60;;
84523;SDS011;74765;44.538;18.668;2024-03-29T15:04:21;6.53;;;2.22;;
84523;SDS011;74765;44.538;18.668;2024-03-29T15:06:47;10.07;;;2.22;;
84523;SDS011;74765;44.538;18.668;2024-03-29T15:09:17;11.32;;;3.13;;